Time;durP1;ratioP1;P1;durP2;ratioP2;P2;SDS_P1;SDS_P2;PMS_P1;PMS_P2;Temp;Humidity;BMP_temperature;BMP_pressure;BME280_temperature;BME280_humidity;BME280_pressure;Samples;Min_cycle;Max_cycle;Signal;HPM_P1;HPM_P2
2022/01/04 00:01:31;;;;;;;10.63;6.53;;;;;;;3.60;78.96;100554.36;1780385;79;25677;-61
2022/01/04 00:03:58;;;;;;;10.68;6.08;;;;;;;3.75;79.33;100552.55;1799407;79;25701;-61
2022/01/04 00:06:25;;;;;;;10.35;6.22;;;;;;;3.93;79.27;100557.16;1799682;79;26470;-62
2022/01/04 00:08:55;;;;;;;10.45;5.50;;;;;;;4.07;78.79;100565.58;1769903;79;25487;-61
2022/01/04 00:11:31;;;;;;;9.05;6.20;;;;;;;4.20;78.40;100561.64;1761444;81;28171;-61
2022/01/04 00:13:49;;;;;;;7.58;5.05;;;;;;;4.32;77.69;100572.83;1759696;80;25710;-61
2022/01/04 00:16:16;;;;;;;11.05;5.53;;;;;;;4.42;77.28;100573.56;1764832;79;25629;-61
2022/01/04 00:18:46;;;;;;;8.58;5.12;;;;;;;4.51;77.10;100579.12;1762072;81;26593;-61
2022/01/04 00:21:14;;;;;;;9.98;5.30;;;;;;;4.56;76.82;100580.14;1764240;79;25763;-59
2022/01/04 00:23:44;;;;;;;12.90;5.55;;;;;;;4.59;76.47;100576.41;1799392;79;27519;-62
2022/01/04 00:26:11;;;;;;;9.28;5.85;;;;;;;4.63;76.30;100583.27;1780641;79;25741;-61
2022/01/04 00:28:38;;;;;;;8.93;5.95;;;;;;;4.64;76.06;100583.64;1780730;79;26550;-61
2022/01/04 00:31:08;;;;;;;14.10;5.80;;;;;;;4.65;75.87;100590.68;1799516;79;25794;-61
2022/01/04 00:33:36;;;;;;;8.98;5.70;;;;;;;4.65;75.67;100590.19;1799174;79;26464;-61
2022/01/04 00:36:06;;;;;;;12.55;7.15;;;;;;;4.62;75.27;100597.54;1795202;79;28696;-61
2022/01/04 00:38:33;;;;;;;14.40;7.40;;;;;;;4.54;74.99;100599.36;1784586;79;26063;-61
2022/01/04 00:41:02;;;;;;;10.85;6.85;;;;;;;4.47;74.76;100606.06;1799416;79;25490;-61
2022/01/04 00:43:30;;;;;;;13.25;7.03;;;;;;;4.37;74.74;100602.67;1768316;79;25836;-62
2022/01/04 00:46:00;;;;;;;15.20;7.25;;;;;;;4.31;74.66;100612.86;1762792;79;25762;-61
2022/01/04 00:50:55;;;;;;;19.02;9.10;;;;;;;4.15;74.55;100614.34;1782718;79;25824;-62
2022/01/04 00:53:23;;;;;;;12.90;7.75;;;;;;;4.07;74.38;100616.16;1764977;79;25689;-61
2022/01/04 00:55:49;;;;;;;12.53;7.58;;;;;;;4.02;74.55;100616.94;1762258;81;27020;-62
2022/01/04 00:58:16;;;;;;;16.85;8.68;;;;;;;3.99;74.74;100617.13;1771724;79;25788;-61
2022/01/04 01:00:44;;;;;;;18.25;9.68;;;;;;;3.99;74.93;100617.13;1799786;79;27833;-62
2022/01/04 01:03:10;;;;;;;15.90;8.08;;;;;;;3.96;75.01;100622.17;1799304;79;25766;-61
2022/01/04 01:05:38;;;;;;;16.35;7.22;;;;;;;3.93;74.92;100619.70;1788031;79;25782;-62
2022/01/04 01:08:07;;;;;;;17.40;8.13;;;;;;;3.88;75.01;100623.98;1768347;79;25917;-61
2022/01/04 01:13:04;;;;;;;13.58;6.97;;;;;;;3.89;75.38;100624.36;1800282;78;27460;-61
2022/01/04 01:15:30;;;;;;;10.63;5.97;;;;;;;3.92;75.49;100620.64;1802725;79;26275;-62
2022/01/04 01:17:57;;;;;;;11.08;6.28;;;;;;;3.93;75.50;100622.36;1778601;79;25651;-62
2022/01/04 01:20:24;;;;;;;12.33;6.55;;;;;;;3.95;75.20;100624.45;1769437;79;25796;-62
2022/01/04 01:22:52;;;;;;;14.43;6.17;;;;;;;3.93;75.43;100629.02;1767630;81;25634;-61
2022/01/04 01:25:20;;;;;;;11.53;6.08;;;;;;;3.96;75.53;100635.94;1767367;81;29633;-62
2022/01/04 01:27:47;;;;;;;9.08;5.80;;;;;;;3.99;75.60;100631.77;1771909;79;25722;-62
2022/01/04 01:30:15;;;;;;;8.08;5.55;;;;;;;4.01;75.49;100632.53;1802218;79;25692;-62
2022/01/04 01:32:41;;;;;;;9.13;5.10;;;;;;;4.03;75.28;100626.64;1802514;79;25976;-62
2022/01/04 01:35:10;;;;;;;8.33;5.20;;;;;;;4.01;74.71;100629.38;1802602;79;25741;-61
2022/01/04 01:37:37;;;;;;;9.68;5.05;;;;;;;3.87;74.62;100634.24;1788618;79;27469;-62
2022/01/04 01:40:05;;;;;;;12.40;6.75;;;;;;;3.80;74.65;100629.42;1802359;79;25498;-61
2022/01/04 01:42:34;;;;;;;11.48;6.25;;;;;;;3.75;74.88;100634.54;1789132;79;25720;-62
2022/01/04 01:45:01;;;;;;;10.03;6.15;;;;;;;3.73;74.94;100627.13;1793283;79;26454;-62
2022/01/04 01:47:28;;;;;;;10.55;6.60;;;;;;;3.73;74.66;100628.45;1802442;79;26429;-61
2022/01/04 01:49:56;;;;;;;11.40;6.10;;;;;;;3.71;74.78;100628.17;1787586;79;27408;-61
2022/01/04 01:52:24;;;;;;;9.88;5.90;;;;;;;3.69;74.89;100623.41;1786607;79;25775;-62
2022/01/04 01:54:53;;;;;;;10.98;6.15;;;;;;;3.67;74.92;100626.67;1792876;79;25797;-61
2022/01/04 01:57:22;;;;;;;9.53;5.70;;;;;;;3.64;74.68;100624.19;1802503;79;25772;-61
2022/01/04 01:59:49;;;;;;;11.95;6.35;;;;;;;3.59;74.46;100619.99;1775618;79;25484;-61
2022/01/04 02:02:17;;;;;;;17.35;7.78;;;;;;;3.56;74.43;100620.20;1796533;79;27531;-62
2022/01/04 02:04:47;;;;;;;12.55;7.22;;;;;;;3.54;74.46;100611.95;1780125;79;25792;-62
2022/01/04 02:07:15;;;;;;;13.43;7.60;;;;;;;3.49;74.64;100617.55;1767614;81;25734;-62
2022/01/04 02:09:50;;;;;;;11.25;7.08;;;;;;;3.46;74.81;100620.39;1767770;81;25775;-61
2022/01/04 02:12:13;;;;;;;14.47;7.62;;;;;;;3.42;74.72;100622.38;1766437;81;27377;-62
2022/01/04 02:14:48;;;;;;;11.48;6.95;;;;;;;3.38;74.71;100619.52;1784822;79;29530;-61
2022/01/04 02:17:15;;;;;;;8.48;4.62;;;;;;;3.39;75.65;100625.70;1769401;79;25751;-62
2022/01/04 02:19:44;;;;;;;20.12;8.20;;;;;;;3.44;76.04;100627.59;1761930;79;25701;-62
2022/01/04 02:22:11;;;;;;;20.08;8.65;;;;;;;3.52;76.18;100627.98;1761781;81;25839;-61
2022/01/04 02:24:38;;;;;;;20.70;8.40;;;;;;;3.57;76.20;100630.36;1779858;79;25767;-60
2022/01/04 02:27:05;;;;;;;21.62;7.85;;;;;;;3.60;76.07;100623.04;1762211;81;27775;-61
2022/01/04 02:29:32;;;;;;;11.22;6.62;;;;;;;3.66;76.24;100640.43;1779617;79;25807;-61
2022/01/04 02:31:59;;;;;;;10.05;5.85;;;;;;;3.69;76.19;100630.94;1761901;79;25739;-61
2022/01/04 02:34:26;;;;;;;11.90;6.10;;;;;;;3.71;76.06;100632.16;1761829;81;26351;-62
2022/01/04 02:36:54;;;;;;;10.15;5.30;;;;;;;3.73;76.21;100626.28;1766582;80;27399;-61
2022/01/04 02:39:23;;;;;;;13.10;6.17;;;;;;;3.74;76.09;100633.31;1767168;79;27484;-62
2022/01/04 02:41:52;;;;;;;12.73;6.37;;;;;;;3.74;76.15;100630.66;1768739;79;25799;-62
2022/01/04 02:44:19;;;;;;;11.28;5.58;;;;;;;3.76;76.13;100637.58;1799331;79;25808;-62
2022/01/04 02:46:46;;;;;;;8.68;5.28;;;;;;;3.82;76.21;100632.81;1793526;79;25782;-61
2022/01/04 02:49:13;;;;;;;8.63;5.17;;;;;;;3.82;76.13;100632.36;1799293;79;25638;-61
2022/01/04 02:51:40;;;;;;;8.30;5.10;;;;;;;3.88;76.15;100629.79;1793578;79;26893;-62
2022/01/04 02:54:07;;;;;;;9.80;5.15;;;;;;;3.84;75.60;100635.78;1775034;80;25782;-61
2022/01/04 02:56:35;;;;;;;8.55;5.00;;;;;;;3.87;75.86;100640.05;1775417;80;25523;-59
2022/01/04 02:59:04;;;;;;;6.65;4.30;;;;;;;3.93;75.80;100634.34;1777743;79;25961;-62
2022/01/04 03:01:31;;;;;;;6.05;4.05;;;;;;;3.93;75.67;100633.00;1797465;79;25797;-61
2022/01/04 03:04:00;;;;;;;11.53;4.80;;;;;;;3.93;75.57;100635.66;1761875;80;28177;-61
2022/01/04 03:06:27;;;;;;;6.58;4.70;;;;;;;3.93;75.40;100628.17;1762017;81;25822;-62
2022/01/04 03:08:54;;;;;;;9.03;4.35;;;;;;;3.90;75.38;100624.74;1785608;79;25795;-62
2022/01/04 03:11:21;;;;;;;6.90;3.70;;;;;;;3.83;74.65;100631.87;1797763;79;26798;-62
2022/01/04 03:13:48;;;;;;;9.58;4.33;;;;;;;3.69;74.78;100628.73;1762289;79;25971;-62
2022/01/04 03:16:15;;;;;;;6.00;4.45;;;;;;;3.65;74.95;100626.74;1762145;79;27496;-62
2022/01/04 03:19:03;;;;;;;6.97;4.22;;;;;;;3.64;75.00;100633.50;1761684;81;25723;-62
2022/01/04 03:21:18;;;;;;;8.05;4.33;;;;;;;3.60;74.90;100631.02;1758353;81;25806;-62
2022/01/04 03:23:45;;;;;;;6.78;4.17;;;;;;;3.57;74.89;100631.69;1796413;79;25772;-61
2022/01/04 03:26:12;;;;;;;8.38;5.03;;;;;;;3.54;74.89;100633.23;1799272;79;25437;-62
2022/01/04 03:28:40;;;;;;;7.45;4.80;;;;;;;3.51;74.85;100634.73;1798795;79;27461;-61
2022/01/04 03:31:08;;;;;;;10.60;4.53;;;;;;;3.43;74.73;100628.09;1761798;81;25759;-62
2022/01/04 03:33:36;;;;;;;7.72;4.45;;;;;;;3.35;74.38;100622.38;1794044;79;25752;-61
2022/01/04 03:36:05;;;;;;;7.53;4.70;;;;;;;3.26;74.42;100624.27;1744566;82;26082;-61
2022/01/04 03:38:32;;;;;;;7.78;4.25;;;;;;;3.19;74.53;100629.09;1760737;79;25749;-62
2022/01/04 03:41:00;;;;;;;7.45;3.77;;;;;;;3.14;74.68;100624.50;1762246;81;28686;-62
2022/01/04 03:43:29;;;;;;;5.50;3.22;;;;;;;3.11;74.73;100628.70;1771595;79;25928;-62
2022/01/04 03:45:56;;;;;;;8.83;3.92;;;;;;;3.07;74.85;100624.04;1775361;79;25836;-62
2022/01/04 03:48:23;;;;;;;5.25;3.45;;;;;;;3.06;75.15;100636.94;1775103;79;25801;-61
2022/01/04 03:50:50;;;;;;;7.83;3.00;;;;;;;3.06;75.34;100631.62;1798974;79;25813;-61
2022/01/04 03:53:16;;;;;;;5.42;3.22;;;;;;;3.02;75.31;100630.08;1795916;79;27528;-62
2022/01/04 03:55:45;;;;;;;5.20;3.50;;;;;;;3.03;75.59;100624.31;1799487;79;25649;-62
2022/01/04 03:58:14;;;;;;;5.62;3.02;;;;;;;3.07;75.81;100636.00;1798558;79;25769;-62
2022/01/04 04:00:41;;;;;;;6.03;3.00;;;;;;;3.05;75.50;100625.09;1799455;78;27983;-61
2022/01/04 04:03:07;;;;;;;8.78;3.00;;;;;;;2.99;75.53;100628.95;1791018;79;25725;-62
2022/01/04 04:05:34;;;;;;;5.15;3.47;;;;;;;3.02;76.05;100630.57;1799540;79;27563;-62
2022/01/04 04:08:01;;;;;;;6.95;2.75;;;;;;;3.00;75.93;100630.67;1799564;79;25712;-61
2022/01/04 04:10:31;;;;;;;5.25;2.80;;;;;;;2.97;75.81;100624.20;1799300;79;25741;-61
2022/01/04 04:12:59;;;;;;;7.25;2.70;;;;;;;2.92;75.70;100625.80;1796797;79;26169;-61
2022/01/04 04:15:26;;;;;;;5.90;3.10;;;;;;;2.93;76.01;100622.66;1815346;78;25512;-61
2022/01/04 04:17:53;;;;;;;7.62;3.12;;;;;;;2.94;76.10;100624.37;1817118;78;27538;-61
2022/01/04 04:20:20;;;;;;;8.45;3.15;;;;;;;2.94;75.99;100622.59;1817319;78;25713;-61
2022/01/04 04:22:47;;;;;;;7.05;3.65;;;;;;;2.80;75.36;100612.77;1802783;78;25691;-61
2022/01/04 04:25:15;;;;;;;5.72;3.12;;;;;;;2.73;75.59;100613.20;1811727;78;25779;-61
2022/01/04 04:27:42;;;;;;;5.35;2.92;;;;;;;2.67;75.45;100621.05;1817529;78;25692;-61
2022/01/04 04:30:12;;;;;;;7.80;5.45;;;;;;;2.61;75.50;100618.77;1812754;78;27464;-61
2022/01/04 04:32:38;;;;;;;12.37;5.35;;;;;;;2.52;75.28;100620.14;1799356;78;25658;-61
2022/01/04 04:35:06;;;;;;;5.72;4.08;;;;;;;2.42;75.37;100617.65;1817539;78;25713;-61
2022/01/04 04:37:33;;;;;;;8.30;3.77;;;;;;;2.30;74.85;100624.48;1801151;78;25786;-61
2022/01/04 04:40:07;;;;;;;6.75;3.33;;;;;;;2.19;75.01;100629.08;1811831;78;25784;-61
2022/01/04 04:42:35;;;;;;;8.35;3.52;;;;;;;2.10;75.50;100630.91;1807279;78;27480;-61
2022/01/04 04:45:05;;;;;;;9.80;4.55;;;;;;;2.00;75.45;100627.93;1787369;78;25506;-61
2022/01/04 04:47:32;;;;;;;9.23;4.62;;;;;;;1.93;75.33;100626.56;1790591;78;25759;-61
2022/01/04 04:50:00;;;;;;;10.82;5.80;;;;;;;1.90;75.56;100630.21;1817422;78;26711;-61
2022/01/04 04:52:27;;;;;;;9.50;4.03;;;;;;;1.83;75.53;100614.25;1803320;78;27267;-61
2022/01/04 04:54:54;;;;;;;10.00;3.70;;;;;;;1.76;75.68;100609.74;1808506;78;27468;-61
2022/01/04 04:57:21;;;;;;;8.08;4.45;;;;;;;1.69;75.70;100614.55;1817334;78;25634;-61
2022/01/04 04:59:47;;;;;;;6.75;4.33;;;;;;;1.65;75.77;100608.16;1817211;78;25716;-61
2022/01/04 05:02:16;;;;;;;6.53;3.50;;;;;;;1.63;75.94;100615.34;1817272;78;25772;-61
2022/01/04 05:04:43;;;;;;;9.70;3.37;;;;;;;1.64;76.18;100613.08;1814433;78;25768;-61
2022/01/04 05:07:09;;;;;;;4.83;3.35;;;;;;;1.65;76.34;100617.45;1817480;78;27472;-62
2022/01/04 05:09:36;;;;;;;7.30;3.55;;;;;;;1.67;76.42;100619.52;1797239;78;25817;-61
2022/01/04 05:12:06;;;;;;;4.67;3.45;;;;;;;1.63;76.52;100615.34;1787493;78;25800;-61
2022/01/04 05:14:33;;;;;;;5.00;3.20;;;;;;;1.64;76.29;100628.98;1779548;78;25971;-61
2022/01/04 05:17:00;;;;;;;4.67;3.05;;;;;;;1.63;76.19;100627.27;1767135;81;26130;-61
2022/01/04 05:19:30;;;;;;;6.40;3.27;;;;;;;1.62;76.28;100623.74;1766890;81;28226;-61
2022/01/04 05:21:59;;;;;;;8.28;3.15;;;;;;;1.64;76.51;100621.03;1769531;79;25493;-61
2022/01/04 05:24:26;;;;;;;8.73;3.35;;;;;;;1.65;76.63;100618.77;1780285;80;25701;-61
2022/01/04 05:26:53;;;;;;;5.53;3.87;;;;;;;1.65;76.63;100622.27;1781008;80;25894;-61
2022/01/04 05:29:20;;;;;;;6.45;4.03;;;;;;;1.65;76.54;100620.09;1781103;80;25757;-61
2022/01/04 05:31:49;;;;;;;6.17;3.90;;;;;;;1.60;76.20;100627.42;1780931;80;27523;-62
2022/01/04 05:34:17;;;;;;;11.05;3.98;;;;;;;1.54;76.25;100633.45;1780812;80;25757;-61
2022/01/04 05:36:43;;;;;;;10.18;6.42;;;;;;;1.47;76.11;100633.40;1783671;79;25790;-62
2022/01/04 05:39:10;;;;;;;7.75;5.40;;;;;;;1.40;75.88;100635.95;1783903;79;26151;-61
2022/01/04 05:41:39;;;;;;;11.55;5.90;;;;;;;1.33;75.64;100641.20;1801911;79;25710;-61
2022/01/04 05:44:08;;;;;;;8.48;4.97;;;;;;;1.25;75.71;100634.99;1794660;79;27579;-62
2022/01/04 05:46:36;;;;;;;10.48;5.33;;;;;;;1.22;75.80;100632.01;1802399;79;25822;-61
2022/01/04 05:49:03;;;;;;;8.73;5.03;;;;;;;1.19;75.95;100630.86;1802295;79;25764;-61
2022/01/04 05:51:30;;;;;;;7.03;3.90;;;;;;;1.12;75.78;100632.09;1788596;79;25812;-61
2022/01/04 05:53:57;;;;;;;33.88;21.25;;;;;;;1.07;75.66;100633.68;1770565;81;25708;-61
2022/01/04 05:56:26;;;;;;;10.28;6.22;;;;;;;1.00;75.58;100630.93;1770745;81;27473;-61
2022/01/04 05:58:53;;;;;;;10.82;5.37;;;;;;;0.94;75.80;100638.72;1791460;79;26334;-62
2022/01/04 06:01:20;;;;;;;12.15;5.25;;;;;;;0.86;75.79;100632.95;1802256;79;25661;-62
2022/01/04 06:03:47;;;;;;;10.32;4.80;;;;;;;0.78;75.85;100636.45;1802887;79;26463;-62
2022/01/04 06:06:13;;;;;;;9.10;5.15;;;;;;;0.77;76.35;100643.55;1802302;79;25794;-62
2022/01/04 06:08:40;;;;;;;8.93;5.10;;;;;;;0.75;76.21;100650.71;1769133;81;27474;-61
2022/01/04 06:11:28;;;;;;;10.13;5.25;;;;;;;0.74;76.81;100637.56;1769601;79;25782;-62
2022/01/04 06:16:26;;;;;;;10.98;4.90;;;;;;;0.77;77.02;100646.20;1795265;79;25796;-61
2022/01/04 06:18:53;;;;;;;8.88;4.90;;;;;;;0.81;77.17;100649.55;1801754;79;27312;-62
2022/01/04 06:21:20;;;;;;;11.12;5.25;;;;;;;0.85;77.09;100640.50;1800113;79;28006;-62
2022/01/04 06:23:50;;;;;;;9.95;5.05;;;;;;;0.86;76.91;100650.65;1789745;79;26372;-61
2022/01/04 06:26:16;;;;;;;14.90;6.45;;;;;;;0.89;76.95;100639.43;1778640;80;25775;-62
2022/01/04 06:28:43;;;;;;;13.18;7.17;;;;;;;0.93;77.04;100638.80;1766817;81;26461;-61
2022/01/04 06:31:10;;;;;;;15.30;7.35;;;;;;;0.95;76.84;100638.27;1767032;79;26567;-61
2022/01/04 06:33:39;;;;;;;37.80;18.32;;;;;;;0.99;76.89;100646.44;1766718;81;27475;-61
2022/01/04 06:36:06;;;;;;;11.68;6.70;;;;;;;1.01;77.02;100649.02;1767721;79;25809;-62
2022/01/04 06:38:34;;;;;;;14.35;6.03;;;;;;;1.04;76.94;100648.84;1782960;80;25963;-61
2022/01/04 06:41:01;;;;;;;13.53;6.85;;;;;;;1.01;76.52;100645.89;1782574;80;25817;-61
2022/01/04 06:43:28;;;;;;;17.48;7.22;;;;;;;0.99;76.43;100641.13;1769988;80;25749;-61
2022/01/04 06:45:55;;;;;;;13.90;6.87;;;;;;;0.94;76.38;100642.69;1767654;81;27445;-61
2022/01/04 06:48:22;;;;;;;12.28;6.50;;;;;;;0.96;76.31;100647.06;1767262;81;25932;-61
2022/01/04 06:50:49;;;;;;;11.78;6.10;;;;;;;0.93;76.37;100644.10;1768384;79;25720;-62
2022/01/04 06:53:15;;;;;;;10.53;6.25;;;;;;;0.92;76.36;100645.91;1768722;80;26994;-61
2022/01/04 06:55:42;;;;;;;10.28;6.28;;;;;;;0.95;76.62;100652.84;1767302;80;25812;-61
2022/01/04 06:58:09;;;;;;;11.30;6.53;;;;;;;0.98;76.74;100652.70;1774675;80;27475;-61
2022/01/04 07:00:36;;;;;;;13.58;6.12;;;;;;;1.02;76.94;100650.26;1781051;79;25786;-61
2022/01/04 07:03:05;;;;;;;7.20;5.55;;;;;;;1.09;77.26;100649.01;1780069;80;25802;-60
2022/01/04 07:05:35;;;;;;;9.53;6.35;;;;;;;1.18;77.06;100649.47;1794420;79;26506;-61
2022/01/04 07:08:04;;;;;;;12.88;5.80;;;;;;;1.25;77.28;100652.22;1784146;79;25793;-60
2022/01/04 07:10:31;;;;;;;11.97;5.67;;;;;;;1.32;77.36;100651.41;1794410;79;27459;-61
2022/01/04 07:13:02;;;;;;;10.10;5.80;;;;;;;1.39;77.40;100657.65;1790143;79;25607;-61
2022/01/04 07:15:29;;;;;;;10.55;6.08;;;;;;;1.50;77.63;100651.77;1775310;80;25764;-61
2022/01/04 07:17:56;;;;;;;15.32;6.50;;;;;;;1.60;77.54;100657.92;1767740;79;25861;-61
2022/01/04 07:20:23;;;;;;;10.38;6.40;;;;;;;1.71;77.65;100665.69;1767873;79;25857;-61
2022/01/04 07:22:50;;;;;;;14.47;6.75;;;;;;;1.83;77.82;100654.91;1786448;79;27476;-61
2022/01/04 07:25:17;;;;;;;12.28;6.90;;;;;;;1.97;78.10;100661.25;1779595;79;25770;-61
2022/01/04 07:27:43;;;;;;;9.58;6.33;;;;;;;2.08;77.91;100654.02;1778060;80;25810;-61
2022/01/04 07:30:12;;;;;;;12.70;6.67;;;;;;;2.19;77.81;100655.62;1781582;79;25772;-61
2022/01/04 07:32:39;;;;;;;15.83;6.97;;;;;;;2.29;77.74;100649.31;1802086;79;25706;-60
2022/01/04 07:35:09;;;;;;;11.00;7.53;;;;;;;2.40;77.72;100645.59;1802293;79;29520;-61
2022/01/04 07:37:36;;;;;;;34.08;8.10;;;;;;;2.46;77.56;100648.38;1787327;79;26397;-61
2022/01/04 07:40:07;;;;;;;26.02;6.58;;;;;;;2.53;77.63;100647.08;1789951;79;25712;-61
2022/01/04 07:42:34;;;;;;;20.60;7.92;;;;;;;2.65;77.74;100642.86;1783118;79;25801;-60
2022/01/04 07:45:02;;;;;;;11.97;7.75;;;;;;;2.77;77.69;100646.63;1775924;79;25712;-61
2022/01/04 07:47:29;;;;;;;19.23;10.00;;;;;;;2.82;77.04;100640.08;1775081;79;27468;-61
2022/01/04 07:49:57;;;;;;;14.80;8.48;;;;;;;2.87;76.98;100642.47;1783133;79;25697;-61
2022/01/04 07:52:27;;;;;;;20.00;10.28;;;;;;;2.95;77.07;100648.67;1777147;79;25754;-61
2022/01/04 07:54:53;;;;;;;20.05;10.13;;;;;;;3.03;77.24;100646.91;1778790;79;25831;-60
2022/01/04 07:57:20;;;;;;;35.58;16.87;;;;;;;3.15;77.21;100650.63;1776846;79;25979;-61
2022/01/04 07:59:47;;;;;;;52.62;24.12;;;;;;;3.27;77.19;100649.42;1768565;79;27495;-61
2022/01/04 08:02:14;;;;;;;54.05;25.32;;;;;;;3.44;77.10;100656.85;1802344;79;25708;-61
2022/01/04 08:04:41;;;;;;;52.53;23.40;;;;;;;3.62;76.88;100655.34;1781498;79;25522;-61
2022/01/04 08:07:09;;;;;;;51.30;23.02;;;;;;;3.82;76.81;100660.30;1798297;79;25872;-61
2022/01/04 08:09:36;;;;;;;61.77;24.10;;;;;;;4.08;76.76;100658.64;1782870;79;25732;-61
2022/01/04 08:12:04;;;;;;;46.15;21.80;;;;;;;4.36;76.74;100656.89;1783321;79;27492;-61
2022/01/04 08:14:31;;;;;;;51.75;23.75;;;;;;;4.63;76.57;100661.38;1781057;79;25817;-61
2022/01/04 08:16:58;;;;;;;50.65;25.10;;;;;;;4.84;76.43;100654.26;1770066;80;25765;-61
2022/01/04 08:19:25;;;;;;;52.83;24.47;;;;;;;5.02;76.36;100652.16;1776684;80;25777;-61
2022/01/04 08:21:52;;;;;;;50.65;22.95;;;;;;;5.18;76.14;100657.31;1768989;79;25726;-61
2022/01/04 08:24:19;;;;;;;60.03;23.70;;;;;;;5.33;75.83;100654.92;1768550;79;27486;-61
2022/01/04 08:26:46;;;;;;;75.00;23.25;;;;;;;5.58;75.60;100662.59;1776897;79;25823;-61
2022/01/04 08:29:13;;;;;;;62.70;23.50;;;;;;;5.85;75.33;100662.09;1771279;79;25871;-61
2022/01/04 08:31:41;;;;;;;60.88;30.27;;;;;;;6.12;74.77;100655.31;1767796;79;25787;-61
2022/01/04 08:34:08;;;;;;;75.50;33.65;;;;;;;6.55;74.16;100657.99;1779844;79;25828;-61
2022/01/04 08:36:37;;;;;;;60.20;31.62;;;;;;;7.26;72.99;100653.19;1764213;80;27465;-61
2022/01/04 08:39:03;;;;;;;59.13;31.93;;;;;;;8.01;71.57;100649.61;1777219;79;25715;-61
2022/01/04 08:41:31;;;;;;;56.60;29.40;;;;;;;8.75;70.42;100642.31;1772992;79;25746;-62
2022/01/04 08:43:58;;;;;;;54.70;29.12;;;;;;;9.45;69.40;100644.53;1775408;80;25693;-61
2022/01/04 08:46:25;;;;;;;57.33;28.55;;;;;;;10.02;68.86;100641.75;1772572;79;25746;-61
2022/01/04 08:48:56;;;;;;;68.65;28.62;;;;;;;10.35;67.89;100642.91;1780824;79;27560;-61
2022/01/04 08:51:23;;;;;;;54.85;26.10;;;;;;;10.36;67.12;100645.09;1778469;79;25811;-61
2022/01/04 08:53:50;;;;;;;58.20;25.85;;;;;;;10.53;64.85;100636.41;1777912;79;25768;-62
2022/01/04 08:56:18;;;;;;;58.58;28.02;;;;;;;10.64;65.09;100628.70;1761580;81;25774;-62
2022/01/04 08:58:45;;;;;;;57.17;26.07;;;;;;;10.96;64.00;100635.16;1760848;81;25776;-61
2022/01/04 09:01:13;;;;;;;45.55;23.95;;;;;;;11.46;63.52;100641.32;1785051;79;27420;-61
2022/01/04 09:03:42;;;;;;;37.93;20.23;;;;;;;11.81;61.39;100626.83;1791586;79;25783;-62
2022/01/04 09:06:12;;;;;;;45.33;22.32;;;;;;;11.70;60.90;100625.14;1771900;79;25664;-62
2022/01/04 09:08:38;;;;;;;44.90;21.75;;;;;;;11.36;60.65;100620.28;1765721;80;25959;-61
2022/01/04 09:11:10;;;;;;;39.48;21.87;;;;;;;11.01;61.09;100620.41;1771142;80;25810;-62
2022/01/04 09:13:41;;;;;;;37.83;19.02;;;;;;;10.77;59.99;100618.50;1767336;80;27460;-61
2022/01/04 09:18:48;;;;;;;24.12;15.25;;;;;;;9.90;59.24;100619.15;1769363;80;25724;-61
2022/01/04 09:21:20;;;;;;;29.57;16.80;;;;;;;9.64;59.00;100621.78;1754408;80;26503;-60
2022/01/04 09:23:49;;;;;;;24.95;15.00;;;;;;;9.26;59.41;100621.08;1762484;80;25815;-60
2022/01/04 09:26:18;;;;;;;31.70;13.93;;;;;;;8.97;60.17;100622.59;1769774;79;27410;-61
2022/01/04 09:28:46;;;;;;;27.90;16.00;;;;;;;8.84;59.27;100613.85;1751385;80;26689;-61
2022/01/04 09:31:14;;;;;;;32.88;15.93;;;;;;;8.93;59.97;100617.10;1782223;79;25471;-61
2022/01/04 09:33:42;;;;;;;26.95;16.27;;;;;;;9.54;60.05;100619.57;1774049;79;25791;-61
2022/01/04 09:36:12;;;;;;;29.05;15.83;;;;;;;10.18;59.82;100617.53;1773680;79;25768;-61
2022/01/04 09:38:41;;;;;;;27.07;15.53;;;;;;;10.57;59.29;100614.95;1767060;79;27494;-61
2022/01/04 09:41:08;;;;;;;31.05;14.90;;;;;;;11.13;59.66;100615.23;1786488;79;25753;-61
2022/01/04 09:43:35;;;;;;;24.43;14.07;;;;;;;11.88;59.46;100622.03;1756694;80;25827;-61
2022/01/04 09:46:03;;;;;;;25.92;15.18;;;;;;;12.50;58.88;100617.41;1782322;79;25765;-61
2022/01/04 09:48:29;;;;;;;20.92;13.18;;;;;;;12.46;56.06;100620.57;1766457;79;25448;-61
2022/01/04 09:50:57;;;;;;;14.45;9.65;;;;;;;12.47;56.88;100623.59;1777984;79;27829;-61
2022/01/04 09:53:25;;;;;;;20.10;11.55;;;;;;;12.27;56.37;100623.73;1773407;79;25798;-61
2022/01/04 09:55:57;;;;;;;14.78;9.63;;;;;;;11.95;56.64;100621.45;1776043;79;25811;-61
2022/01/04 09:58:25;;;;;;;17.67;10.23;;;;;;;11.72;56.51;100613.25;1771268;79;25799;-61
2022/01/04 10:00:53;;;;;;;16.37;11.00;;;;;;;11.51;57.02;100612.12;1775345;79;25894;-61
2022/01/04 10:03:28;;;;;;;28.02;15.13;;;;;;;11.66;56.20;100612.98;1764560;79;27865;-61
2022/01/04 10:06:14;;;;;;;;;;;;;;;11.78;55.26;100605.08;1785868;79;27508;-61
2022/01/04 10:08:59;;;;;;;13.32;8.33;;;;;;;11.92;54.80;100605.57;1736684;82;25719;-60
2022/01/04 10:11:37;;;;;;;14.80;9.70;;;;;;;11.94;55.16;100604.41;1766753;81;26411;-61
2022/01/04 10:14:36;;;;;;;18.50;10.35;;;;;;;11.79;54.55;100604.05;1767038;81;25676;-61
2022/01/04 10:17:23;;;;;;;14.73;8.65;;;;;;;11.65;55.45;100595.98;1767316;79;27583;-61
2022/01/04 10:19:55;;;;;;;19.00;9.98;;;;;;;11.54;55.81;100587.56;1773768;80;25759;-61
2022/01/04 10:22:28;;;;;;;20.10;10.20;;;;;;;11.44;54.45;100578.66;1770841;80;25644;-63
2022/01/04 10:25:08;;;;;;;21.57;11.30;;;;;;;11.18;54.12;100572.56;1766572;80;25802;-61
2022/01/04 10:27:46;;;;;;;19.82;10.80;;;;;;;10.91;55.16;100570.64;1779110;79;25736;-61
2022/01/04 10:30:25;;;;;;;21.50;12.58;;;;;;;10.76;55.97;100571.05;1764641;79;26859;-61
2022/01/04 10:32:53;;;;;;;21.77;12.30;;;;;;;10.71;56.18;100565.27;1787346;79;25788;-60
2022/01/04 10:35:44;;;;;;;23.35;11.20;;;;;;;10.68;56.60;100556.13;1763159;79;43835;-62
2022/01/04 10:38:27;;;;;;;24.37;11.48;;;;;;;10.67;56.42;100552.23;1773799;80;25817;-61
2022/01/04 10:41:05;;;;;;;17.87;10.28;;;;;;;10.67;56.84;100550.89;1778451;80;26509;-62
2022/01/04 10:43:43;;;;;;;21.02;11.03;;;;;;;10.66;56.79;100548.72;1767439;79;28186;-62
2022/01/04 10:46:21;;;;;;;16.87;10.85;;;;;;;10.59;56.46;100538.14;1768107;79;25835;-62
2022/01/04 10:48:50;;;;;;;20.55;11.70;;;;;;;10.53;56.17;100530.66;1772838;79;25816;-61
2022/01/04 10:51:21;;;;;;;26.50;13.60;;;;;;;10.48;56.05;100529.25;1776191;79;26454;-62
2022/01/04 10:53:57;;;;;;;24.30;13.88;;;;;;;10.53;56.46;100540.93;1774988;80;26338;-62
2022/01/04 10:56:38;;;;;;;30.23;19.50;;;;;;;10.54;56.55;100543.95;1780436;79;27470;-62
2022/01/04 10:59:10;;;;;;;32.53;23.92;;;;;;;10.51;56.68;100555.48;1770783;80;25961;-62
2022/01/04 11:01:45;;;;;;;37.70;25.17;;;;;;;10.34;56.80;100543.94;1772526;80;25797;-62
2022/01/04 11:04:17;;;;;;;41.33;26.40;;;;;;;10.31;56.76;100533.45;1774694;79;25748;-63
2022/01/04 11:06:47;;;;;;;36.98;24.77;;;;;;;10.25;56.96;100529.98;1767627;80;25729;-62
2022/01/04 11:09:14;;;;;;;35.10;21.75;;;;;;;10.17;56.86;100528.50;1772045;80;27459;-62
2022/01/04 11:11:42;;;;;;;31.37;17.10;;;;;;;10.09;57.35;100533.21;1776880;80;25762;-62
2022/01/04 11:14:12;;;;;;;24.82;14.93;;;;;;;10.05;57.04;100528.25;1778747;80;25748;-61
2022/01/04 11:16:41;;;;;;;22.60;13.75;;;;;;;9.93;57.38;100519.47;1772971;80;26486;-62
2022/01/04 11:19:09;;;;;;;22.35;13.32;;;;;;;9.87;57.34;100509.61;1762297;79;26356;-62
2022/01/04 11:21:43;;;;;;;20.82;13.00;;;;;;;9.71;57.53;100511.98;1763077;79;27458;-61
2022/01/04 11:24:14;;;;;;;25.52;15.53;;;;;;;9.62;58.00;100511.45;1760295;81;25837;-62
2022/01/04 11:26:44;;;;;;;23.18;12.90;;;;;;;9.54;58.24;100506.78;1760490;81;25754;-62
2022/01/04 11:29:12;;;;;;;24.55;13.70;;;;;;;9.44;58.11;100499.18;1760008;81;25830;-62
2022/01/04 11:31:48;;;;;;;25.48;12.85;;;;;;;9.43;58.20;100502.34;1765273;80;25844;-62
2022/01/04 11:34:49;;;;;;;24.52;12.37;;;;;;;9.49;58.58;100500.48;1770196;79;27465;-62
2022/01/04 11:37:19;;;;;;;19.42;12.05;;;;;;;9.73;58.69;100491.72;1757813;80;25791;-61
2022/01/04 11:39:46;;;;;;;26.42;14.30;;;;;;;10.43;58.02;100479.57;1770485;80;25696;-62
2022/01/04 11:42:38;;;;;;;25.30;14.15;;;;;;;10.69;57.41;100463.66;1765920;79;25923;-62